sensor_id;sensor_type;location;lat;lon;timestamp;pressure;altitude;pressure_sealevel;temperature;humidity
55540;BME280;41384;51.418;7.286;2022-09-03T00:01:15;99530.53;;;18.47;43.76
55540;BME280;41384;51.418;7.286;2022-09-03T00:03:45;99528.91;;;18.41;43.94
55540;BME280;41384;51.418;7.286;2022-09-03T00:06:23;99514.78;;;18.41;44.03
55540;BME280;41384;51.418;7.286;2022-09-03T00:08:57;99518.22;;;18.41;43.89
55540;BME280;41384;51.418;7.286;2022-09-03T00:11:30;99508.63;;;18.40;44.08
55540;BME280;41384;51.418;7.286;2022-09-03T00:14:15;99520.91;;;18.36;44.03
55540;BME280;41384;51.418;7.286;2022-09-03T00:16:57;99518.75;;;18.33;43.89
55540;BME280;41384;51.418;7.286;2022-09-03T00:19:31;99510.75;;;18.33;44.30
55540;BME280;41384;51.418;7.286;2022-09-03T00:22:02;99511.81;;;18.32;43.96
55540;BME280;41384;51.418;7.286;2022-09-03T00:24:34;99505.94;;;18.35;44.02
55540;BME280;41384;51.418;7.286;2022-09-03T00:27:14;99507.81;;;18.40;44.07
55540;BME280;41384;51.418;7.286;2022-09-03T00:29:48;99508.06;;;18.38;43.73
55540;BME280;41384;51.418;7.286;2022-09-03T00:32:22;99506.72;;;18.20;44.57
55540;BME280;41384;51.418;7.286;2022-09-03T00:34:55;99498.72;;;18.30;44.21
55540;BME280;41384;51.418;7.286;2022-09-03T00:37:22;99510.75;;;18.33;44.17
55540;BME280;41384;51.418;7.286;2022-09-03T00:39:47;99501.41;;;18.25;44.45
55540;BME280;41384;51.418;7.286;2022-09-03T00:48:08;99501.41;;;18.25;44.20
55540;BME280;41384;51.418;7.286;2022-09-03T00:53:37;99507.81;;;18.24;44.34
55540;BME280;41384;51.418;7.286;2022-09-03T00:56:30;99507.81;;;18.19;44.52
55540;BME280;41384;51.418;7.286;2022-09-03T01:04:39;99510.19;;;18.20;44.56
55540;BME280;41384;51.418;7.286;2022-09-03T01:07:17;99505.91;;;18.19;44.34
55540;BME280;41384;51.418;7.286;2022-09-03T01:12:51;99511.00;;;18.21;44.20
55540;BME280;41384;51.418;7.286;2022-09-03T01:15:26;99513.38;;;18.12;44.34
55540;BME280;41384;51.418;7.286;2022-09-03T01:18:11;99511.25;;;18.19;44.50
55540;BME280;41384;51.418;7.286;2022-09-03T01:23:53;99508.06;;;18.17;44.49
55540;BME280;41384;51.418;7.286;2022-09-03T01:29:33;99508.28;;;18.11;44.56
55540;BME280;41384;51.418;7.286;2022-09-03T01:32:14;99503.22;;;18.09;44.77
55540;BME280;41384;51.418;7.286;2022-09-03T01:35:00;99508.28;;;18.05;44.97
55540;BME280;41384;51.418;7.286;2022-09-03T01:38:07;99508.56;;;18.04;44.98
55540;BME280;41384;51.418;7.286;2022-09-03T01:46:25;99496.81;;;18.05;44.81
55540;BME280;41384;51.418;7.286;2022-09-03T01:49:23;99499.69;;;17.98;44.93
55540;BME280;41384;51.418;7.286;2022-09-03T01:51:58;99491.47;;;18.05;44.86
55540;BME280;41384;51.418;7.286;2022-09-03T01:57:13;99494.88;;;17.95;45.25
55540;BME280;41384;51.418;7.286;2022-09-03T02:02:38;99494.09;;;17.94;45.30
55540;BME280;41384;51.418;7.286;2022-09-03T02:05:08;99492.75;;;17.97;45.01
55540;BME280;41384;51.418;7.286;2022-09-03T02:07:43;99492.72;;;17.87;45.23
55540;BME280;41384;51.418;7.286;2022-09-03T02:10:59;99491.66;;;17.88;45.38
55540;BME280;41384;51.418;7.286;2022-09-03T02:13:09;99500.22;;;17.95;45.31
55540;BME280;41384;51.418;7.286;2022-09-03T02:15:37;99498.34;;;17.85;45.44
55540;BME280;41384;51.418;7.286;2022-09-03T02:18:09;99491.94;;;17.86;45.66
55540;BME280;41384;51.418;7.286;2022-09-03T02:20:38;99494.31;;;17.83;45.56
55540;BME280;41384;51.418;7.286;2022-09-03T02:23:04;99498.88;;;17.87;45.66
55540;BME280;41384;51.418;7.286;2022-09-03T02:25:37;99490.56;;;17.84;45.59
55540;BME280;41384;51.418;7.286;2022-09-03T02:28:05;99493.25;;;17.84;45.81
55540;BME280;41384;51.418;7.286;2022-09-03T02:30:31;99490.31;;;17.85;45.71
55540;BME280;41384;51.418;7.286;2022-09-03T02:32:58;99490.59;;;17.89;45.88
55540;BME280;41384;51.418;7.286;2022-09-03T02:35:23;99490.31;;;17.80;45.86
55540;BME280;41384;51.418;7.286;2022-09-03T02:37:49;99494.06;;;17.84;46.02
55540;BME280;41384;51.418;7.286;2022-09-03T02:40:14;99495.34;;;17.76;46.10
55540;BME280;41384;51.418;7.286;2022-09-03T02:42:40;99492.97;;;17.80;46.15
55540;BME280;41384;51.418;7.286;2022-09-03T02:47:37;99496.97;;;17.77;45.86
55540;BME280;41384;51.418;7.286;2022-09-03T02:50:05;99489.22;;;17.76;46.30
55540;BME280;41384;51.418;7.286;2022-09-03T02:52:30;99499.31;;;17.63;46.26
55540;BME280;41384;51.418;7.286;2022-09-03T02:54:55;99496.94;;;17.72;46.26
55540;BME280;41384;51.418;7.286;2022-09-03T02:57:21;99494.59;;;17.81;45.99
55540;BME280;41384;51.418;7.286;2022-09-03T02:59:46;99495.91;;;17.84;45.75
55540;BME280;41384;51.418;7.286;2022-09-03T03:02:12;99492.69;;;17.82;46.03
55540;BME280;41384;51.418;7.286;2022-09-03T03:04:38;99486.81;;;17.74;46.47
55540;BME280;41384;51.418;7.286;2022-09-03T03:07:05;99488.16;;;17.72;46.64
55540;BME280;41384;51.418;7.286;2022-09-03T03:09:30;99488.69;;;17.69;46.57
55540;BME280;41384;51.418;7.286;2022-09-03T03:11:55;99484.66;;;17.71;46.59
55540;BME280;41384;51.418;7.286;2022-09-03T03:14:21;99491.06;;;17.65;46.31
55540;BME280;41384;51.418;7.286;2022-09-03T03:16:48;99487.06;;;17.68;46.53
55540;BME280;41384;51.418;7.286;2022-09-03T03:19:14;99486.72;;;17.48;46.97
55540;BME280;41384;51.418;7.286;2022-09-03T03:21:40;99481.66;;;17.57;46.76
55540;BME280;41384;51.418;7.286;2022-09-03T03:24:06;99479.28;;;17.61;46.55
55540;BME280;41384;51.418;7.286;2022-09-03T03:26:31;99485.41;;;17.56;46.82
55540;BME280;41384;51.418;7.286;2022-09-03T03:29:00;99478.53;;;17.71;46.79
55540;BME280;41384;51.418;7.286;2022-09-03T03:31:26;99478.22;;;17.62;46.80
55540;BME280;41384;51.418;7.286;2022-09-03T03:33:53;99471.28;;;17.61;46.88
55540;BME280;41384;51.418;7.286;2022-09-03T03:36:20;99475.78;;;17.50;47.40
55540;BME280;41384;51.418;7.286;2022-09-03T03:38:46;99477.41;;;17.56;47.05
55540;BME280;41384;51.418;7.286;2022-09-03T03:41:20;99475.00;;;17.55;47.10
55540;BME280;41384;51.418;7.286;2022-09-03T03:43:46;99466.47;;;17.58;46.81
55540;BME280;41384;51.418;7.286;2022-09-03T03:46:12;99471.28;;;17.61;47.14
55540;BME280;41384;51.418;7.286;2022-09-03T03:48:39;99471.00;;;17.57;46.96
55540;BME280;41384;51.418;7.286;2022-09-03T03:51:06;99468.88;;;17.64;47.00
55540;BME280;41384;51.418;7.286;2022-09-03T03:53:36;99474.00;;;17.76;46.85
55540;BME280;41384;51.418;7.286;2022-09-03T03:56:05;99477.22;;;17.84;46.59
55540;BME280;41384;51.418;7.286;2022-09-03T03:58:31;99472.13;;;17.72;46.51
55540;BME280;41384;51.418;7.286;2022-09-03T04:01:08;99467.06;;;17.80;46.70
55540;BME280;41384;51.418;7.286;2022-09-03T04:03:35;99468.69;;;17.87;46.59
55540;BME280;41384;51.418;7.286;2022-09-03T04:06:00;99460.66;;;17.82;46.44
55540;BME280;41384;51.418;7.286;2022-09-03T04:08:27;99457.19;;;17.76;46.57
55540;BME280;41384;51.418;7.286;2022-09-03T04:10:52;99457.16;;;17.65;46.95
55540;BME280;41384;51.418;7.286;2022-09-03T04:13:18;99455.84;;;17.68;46.86
55540;BME280;41384;51.418;7.286;2022-09-03T04:15:44;99451.56;;;17.72;46.89
55540;BME280;41384;51.418;7.286;2022-09-03T04:18:10;99447.88;;;17.84;46.72
55540;BME280;41384;51.418;7.286;2022-09-03T04:20:35;99447.06;;;17.78;46.75
55540;BME280;41384;51.418;7.286;2022-09-03T04:23:01;99450.53;;;17.78;46.79
55540;BME280;41384;51.418;7.286;2022-09-03T04:25:27;99454.03;;;17.94;46.52
55540;BME280;41384;51.418;7.286;2022-09-03T04:27:52;99449.72;;;17.73;47.06
55540;BME280;41384;51.418;7.286;2022-09-03T04:30:18;99449.19;;;17.76;46.83
55540;BME280;41384;51.418;7.286;2022-09-03T04:32:44;99445.44;;;17.72;47.01
55540;BME280;41384;51.418;7.286;2022-09-03T04:35:19;99441.94;;;17.66;47.24
55540;BME280;41384;51.418;7.286;2022-09-03T04:37:45;99442.72;;;17.61;47.15
55540;BME280;41384;51.418;7.286;2022-09-03T04:40:11;99435.53;;;17.62;47.35
55540;BME280;41384;51.418;7.286;2022-09-03T04:42:36;99440.88;;;17.62;47.36
55540;BME280;41384;51.418;7.286;2022-09-03T04:45:02;99438.72;;;17.54;47.43
55540;BME280;41384;51.418;7.286;2022-09-03T04:47:27;99441.41;;;17.69;47.19
55540;BME280;41384;51.418;7.286;2022-09-03T04:49:53;99439.78;;;17.58;47.35
55540;BME280;41384;51.418;7.286;2022-09-03T04:52:19;99439.78;;;17.58;47.32
55540;BME280;41384;51.418;7.286;2022-09-03T04:54:45;99441.41;;;17.59;47.76
55540;BME280;41384;51.418;7.286;2022-09-03T04:57:10;99442.66;;;17.46;47.94
55540;BME280;41384;51.418;7.286;2022-09-03T04:59:35;99441.13;;;17.60;47.54
55540;BME280;41384;51.418;7.286;2022-09-03T05:02:01;99449.13;;;17.60;47.45
55540;BME280;41384;51.418;7.286;2022-09-03T05:04:26;99438.19;;;17.57;47.55
55540;BME280;41384;51.418;7.286;2022-09-03T05:06:51;99445.91;;;17.53;47.67
55540;BME280;41384;51.418;7.286;2022-09-03T05:09:17;99444.28;;;17.52;47.53
55540;BME280;41384;51.418;7.286;2022-09-03T05:11:42;99445.38;;;17.61;47.68
55540;BME280;41384;51.418;7.286;2022-09-03T05:14:08;99446.19;;;17.52;47.74
55540;BME280;41384;51.418;7.286;2022-09-03T05:16:36;99446.22;;;17.62;47.62
55540;BME280;41384;51.418;7.286;2022-09-03T05:19:02;99446.78;;;17.74;47.50
55540;BME280;41384;51.418;7.286;2022-09-03T05:21:33;99444.09;;;17.74;47.42
55540;BME280;41384;51.418;7.286;2022-09-03T05:24:00;99447.31;;;17.82;47.52
55540;BME280;41384;51.418;7.286;2022-09-03T05:26:28;99448.16;;;17.82;47.15
55540;BME280;41384;51.418;7.286;2022-09-03T05:28:56;99452.13;;;17.85;47.41
55540;BME280;41384;51.418;7.286;2022-09-03T05:31:22;99446.84;;;18.05;47.08
55540;BME280;41384;51.418;7.286;2022-09-03T05:33:52;99454.28;;;17.98;48.07
55540;BME280;41384;51.418;7.286;2022-09-03T05:36:20;99459.19;;;18.12;47.69
55540;BME280;41384;51.418;7.286;2022-09-03T05:38:50;99460.50;;;18.14;47.39
55540;BME280;41384;51.418;7.286;2022-09-03T05:41:16;99455.16;;;18.09;47.54
55540;BME280;41384;51.418;7.286;2022-09-03T05:43:42;99459.38;;;17.89;47.78
55540;BME280;41384;51.418;7.286;2022-09-03T05:46:10;99455.09;;;17.93;47.88
55540;BME280;41384;51.418;7.286;2022-09-03T05:48:37;99450.81;;;17.82;48.46
55540;BME280;41384;51.418;7.286;2022-09-03T05:51:05;99451.34;;;17.79;48.04
55540;BME280;41384;51.418;7.286;2022-09-03T05:53:36;99450.00;;;17.82;48.17
55540;BME280;41384;51.418;7.286;2022-09-03T05:56:07;99452.69;;;17.97;47.71
55540;BME280;41384;51.418;7.286;2022-09-03T05:58:40;99455.09;;;17.93;47.83
55540;BME280;41384;51.418;7.286;2022-09-03T06:03:39;99456.69;;;17.89;48.25
55540;BME280;41384;51.418;7.286;2022-09-03T06:06:05;99448.47;;;18.01;48.05
55540;BME280;41384;51.418;7.286;2022-09-03T06:08:32;99458.63;;;18.09;47.81
55540;BME280;41384;51.418;7.286;2022-09-03T06:10:58;99456.75;;;18.15;48.09
55540;BME280;41384;51.418;7.286;2022-09-03T06:13:24;99454.38;;;18.14;47.99
55540;BME280;41384;51.418;7.286;2022-09-03T06:15:49;99454.63;;;18.12;48.03
55540;BME280;41384;51.418;7.286;2022-09-03T06:18:14;99451.41;;;18.10;48.24
55540;BME280;41384;51.418;7.286;2022-09-03T06:20:40;99460.75;;;18.07;48.19
55540;BME280;41384;51.418;7.286;2022-09-03T06:23:05;99456.25;;;18.23;47.97
55540;BME280;41384;51.418;7.286;2022-09-03T06:25:30;99454.38;;;18.14;48.26
55540;BME280;41384;51.418;7.286;2022-09-03T06:27:56;99450.91;;;18.29;47.70
55540;BME280;41384;51.418;7.286;2022-09-03T06:30:21;99457.31;;;18.28;48.19
55540;BME280;41384;51.418;7.286;2022-09-03T06:32:48;99459.19;;;18.43;48.06
55540;BME280;41384;51.418;7.286;2022-09-03T06:35:18;99450.66;;;18.46;48.07
55540;BME280;41384;51.418;7.286;2022-09-03T06:37:43;99458.91;;;18.44;48.07
55540;BME280;41384;51.418;7.286;2022-09-03T06:40:10;99449.03;;;18.50;48.55
55540;BME280;41384;51.418;7.286;2022-09-03T06:42:41;99454.38;;;18.40;49.17
55540;BME280;41384;51.418;7.286;2022-09-03T06:45:09;99458.66;;;18.46;49.16
55540;BME280;41384;51.418;7.286;2022-09-03T06:47:35;99455.16;;;18.50;49.08
55540;BME280;41384;51.418;7.286;2022-09-03T06:50:01;99452.75;;;18.70;49.08
55540;BME280;41384;51.418;7.286;2022-09-03T06:52:29;99456.50;;;18.79;48.75
55540;BME280;41384;51.418;7.286;2022-09-03T06:54:55;99458.06;;;18.95;48.68
55540;BME280;41384;51.418;7.286;2022-09-03T06:57:20;99452.72;;;18.90;48.71
55540;BME280;41384;51.418;7.286;2022-09-03T06:59:45;99466.09;;;18.95;48.41
55540;BME280;41384;51.418;7.286;2022-09-03T07:02:11;99465.03;;;18.86;47.94
55540;BME280;41384;51.418;7.286;2022-09-03T07:04:37;99460.50;;;18.92;48.03
55540;BME280;41384;51.418;7.286;2022-09-03T07:07:02;99458.59;;;19.13;47.63
55540;BME280;41384;51.418;7.286;2022-09-03T07:09:27;99461.50;;;19.27;49.58
55540;BME280;41384;51.418;7.286;2022-09-03T07:11:53;99466.03;;;19.32;49.59
55540;BME280;41384;51.418;7.286;2022-09-03T07:14:19;99464.97;;;19.33;49.13
55540;BME280;41384;51.418;7.286;2022-09-03T07:16:45;99467.59;;;19.43;50.54
55540;BME280;41384;51.418;7.286;2022-09-03T07:19:11;99463.41;;;19.21;49.87
55540;BME280;41384;51.418;7.286;2022-09-03T07:21:38;99463.94;;;19.23;52.32
55540;BME280;41384;51.418;7.286;2022-09-03T07:24:07;99465.75;;;19.33;52.54
55540;BME280;41384;51.418;7.286;2022-09-03T07:26:38;99458.00;;;19.37;52.34
55540;BME280;41384;51.418;7.286;2022-09-03T07:29:05;99463.59;;;19.46;52.21
55540;BME280;41384;51.418;7.286;2022-09-03T07:31:38;99455.56;;;19.40;51.89
55540;BME280;41384;51.418;7.286;2022-09-03T07:34:06;99463.81;;;19.49;52.60
55540;BME280;41384;51.418;7.286;2022-09-03T07:36:40;99457.13;;;19.52;50.38
55540;BME280;41384;51.418;7.286;2022-09-03T07:39:07;99458.97;;;19.57;49.96
55540;BME280;41384;51.418;7.286;2022-09-03T07:41:33;99460.03;;;19.56;49.78
55540;BME280;41384;51.418;7.286;2022-09-03T07:43:59;99463.34;;;19.37;48.97
55540;BME280;41384;51.418;7.286;2022-09-03T07:46:30;99468.94;;;19.46;48.11
55540;BME280;41384;51.418;7.286;2022-09-03T07:48:58;99466.78;;;19.53;47.83
55540;BME280;41384;51.418;7.286;2022-09-03T07:51:28;99465.09;;;19.67;47.58
55540;BME280;41384;51.418;7.286;2022-09-03T07:53:56;99464.00;;;19.74;47.32
55540;BME280;41384;51.418;7.286;2022-09-03T07:56:22;99468.72;;;19.87;47.41
55540;BME280;41384;51.418;7.286;2022-09-03T07:58:48;99473.28;;;19.87;47.18
55540;BME280;41384;51.418;7.286;2022-09-03T08:01:18;99466.31;;;19.86;47.28
55540;BME280;41384;51.418;7.286;2022-09-03T08:03:46;99464.47;;;19.81;47.29
55540;BME280;41384;51.418;7.286;2022-09-03T08:06:13;99464.97;;;19.88;47.24
55540;BME280;41384;51.418;7.286;2022-09-03T08:08:39;99469.53;;;19.93;46.70
55540;BME280;41384;51.418;7.286;2022-09-03T08:13:45;99478.91;;;19.90;46.79
55540;BME280;41384;51.418;7.286;2022-09-03T08:16:14;99474.31;;;20.01;46.45
55540;BME280;41384;51.418;7.286;2022-09-03T08:18:40;99478.22;;;20.14;46.22
55540;BME280;41384;51.418;7.286;2022-09-03T08:21:08;99481.91;;;20.23;46.86
55540;BME280;41384;51.418;7.286;2022-09-03T08:23:39;99481.16;;;20.18;47.16
55540;BME280;41384;51.418;7.286;2022-09-03T08:26:05;99486.75;;;20.21;46.54
55540;BME280;41384;51.418;7.286;2022-09-03T08:28:31;99478.09;;;20.35;46.66
55540;BME280;41384;51.418;7.286;2022-09-03T08:31:03;99491.88;;;20.58;46.57
55540;BME280;41384;51.418;7.286;2022-09-03T08:33:29;99483.53;;;20.59;46.31
55540;BME280;41384;51.418;7.286;2022-09-03T08:36:08;99484.25;;;20.70;45.22
55540;BME280;41384;51.418;7.286;2022-09-03T08:38:35;99480.97;;;20.78;45.31
55540;BME280;41384;51.418;7.286;2022-09-03T08:41:15;99479.13;;;21.03;45.46
55540;BME280;41384;51.418;7.286;2022-09-03T08:46:54;99490.06;;;21.12;45.18
55540;BME280;41384;51.418;7.286;2022-09-03T08:49:25;99486.28;;;21.13;45.16
55540;BME280;41384;51.418;7.286;2022-09-03T08:51:53;99486.34;;;21.08;44.96
55540;BME280;41384;51.418;7.286;2022-09-03T08:54:23;99486.56;;;21.11;45.17
55540;BME280;41384;51.418;7.286;2022-09-03T08:56:52;99478.69;;;21.45;44.18
55540;BME280;41384;51.418;7.286;2022-09-03T08:59:18;99478.03;;;21.53;44.22
55540;BME280;41384;51.418;7.286;2022-09-03T09:07:30;99475.78;;;21.65;43.89
55540;BME280;41384;51.418;7.286;2022-09-03T09:10:15;99477.75;;;21.79;43.56
55540;BME280;41384;51.418;7.286;2022-09-03T09:13:11;99473.00;;;21.70;43.98
55540;BME280;41384;51.418;7.286;2022-09-03T09:16:05;99484.56;;;21.71;43.77
55540;BME280;41384;51.418;7.286;2022-09-03T09:18:42;99475.50;;;21.67;44.16
55540;BME280;41384;51.418;7.286;2022-09-03T09:21:17;99478.97;;;21.67;43.81
55540;BME280;41384;51.418;7.286;2022-09-03T09:23:49;99477.53;;;21.75;43.97
55540;BME280;41384;51.418;7.286;2022-09-03T09:26:17;99479.06;;;21.81;43.58
55540;BME280;41384;51.418;7.286;2022-09-03T09:28:45;99470.94;;;21.86;43.26
55540;BME280;41384;51.418;7.286;2022-09-03T09:31:14;99470.34;;;21.90;42.90
55540;BME280;41384;51.418;7.286;2022-09-03T09:33:41;99469.38;;;21.99;43.05
55540;BME280;41384;51.418;7.286;2022-09-03T09:36:11;99468.22;;;22.06;42.83
55540;BME280;41384;51.418;7.286;2022-09-03T09:38:39;99462.78;;;21.92;43.41
55540;BME280;41384;51.418;7.286;2022-09-03T09:41:14;99463.66;;;21.87;43.21
55540;BME280;41384;51.418;7.286;2022-09-03T09:43:40;99459.03;;;22.12;42.67
55540;BME280;41384;51.418;7.286;2022-09-03T09:46:12;99459.03;;;22.12;43.49
55540;BME280;41384;51.418;7.286;2022-09-03T09:48:45;99468.69;;;21.94;43.51
55540;BME280;41384;51.418;7.286;2022-09-03T09:51:27;99465.47;;;22.11;42.44
55540;BME280;41384;51.418;7.286;2022-09-03T09:54:03;99458.63;;;22.19;42.90
55540;BME280;41384;51.418;7.286;2022-09-03T09:56:36;99466.69;;;22.19;42.56
55540;BME280;41384;51.418;7.286;2022-09-03T09:59:04;99456.88;;;22.09;42.75
55540;BME280;41384;51.418;7.286;2022-09-03T10:01:30;99452.38;;;22.23;42.80
55540;BME280;41384;51.418;7.286;2022-09-03T10:04:07;99461.31;;;22.19;43.01
55540;BME280;41384;51.418;7.286;2022-09-03T10:06:34;99461.75;;;22.26;43.42
55540;BME280;41384;51.418;7.286;2022-09-03T10:09:23;99457.00;;;22.37;42.98
55540;BME280;41384;51.418;7.286;2022-09-03T10:12:07;99462.25;;;22.09;43.46
55540;BME280;41384;51.418;7.286;2022-09-03T10:14:46;99456.56;;;22.49;42.88
55540;BME280;41384;51.418;7.286;2022-09-03T10:17:30;99463.09;;;22.62;42.14
55540;BME280;41384;51.418;7.286;2022-09-03T10:28:29;99471.97;;;22.43;42.82
55540;BME280;41384;51.418;7.286;2022-09-03T10:33:29;99471.69;;;22.78;41.89
55540;BME280;41384;51.418;7.286;2022-09-03T10:47:34;99461.75;;;22.92;42.09
55540;BME280;41384;51.418;7.286;2022-09-03T10:56:15;99471.44;;;23.07;41.39
55540;BME280;41384;51.418;7.286;2022-09-03T11:07:03;99472.91;;;22.99;41.70
55540;BME280;41384;51.418;7.286;2022-09-03T11:09:56;99468.13;;;23.10;41.83
55540;BME280;41384;51.418;7.286;2022-09-03T11:12:31;99467.13;;;23.20;40.67
55540;BME280;41384;51.418;7.286;2022-09-03T11:15:02;99471.56;;;23.30;40.33
55540;BME280;41384;51.418;7.286;2022-09-03T11:17:41;99471.56;;;23.30;40.93
55540;BME280;41384;51.418;7.286;2022-09-03T11:22:43;99463.56;;;23.39;40.74
55540;BME280;41384;51.418;7.286;2022-09-03T11:25:12;99459.97;;;23.57;40.84
55540;BME280;41384;51.418;7.286;2022-09-03T11:30:21;99460.03;;;23.66;41.44
55540;BME280;41384;51.418;7.286;2022-09-03T11:32:54;99462.56;;;23.49;40.91
55540;BME280;41384;51.418;7.286;2022-09-03T11:35:28;99458.00;;;23.86;40.53
55540;BME280;41384;51.418;7.286;2022-09-03T11:38:07;99471.28;;;23.68;40.66
55540;BME280;41384;51.418;7.286;2022-09-03T11:41:03;99462.47;;;23.90;40.17
55540;BME280;41384;51.418;7.286;2022-09-03T11:43:35;99456.63;;;24.11;39.44
55540;BME280;41384;51.418;7.286;2022-09-03T11:46:51;99459.31;;;24.11;39.44
55540;BME280;41384;51.418;7.286;2022-09-03T11:48:50;99463.25;;;24.28;39.20
55540;BME280;41384;51.418;7.286;2022-09-03T11:51:33;99457.81;;;24.19;38.89
55540;BME280;41384;51.418;7.286;2022-09-03T11:56:45;99461.00;;;24.21;38.91
55540;BME280;41384;51.418;7.286;2022-09-03T12:02:02;99463.97;;;24.19;39.85
55540;BME280;41384;51.418;7.286;2022-09-03T12:04:46;99457.47;;;24.21;40.35
55540;BME280;41384;51.418;7.286;2022-09-03T12:19:02;99479.56;;;23.86;42.19
55540;BME280;41384;51.418;7.286;2022-09-03T12:21:36;99474.75;;;23.83;42.08
55540;BME280;41384;51.418;7.286;2022-09-03T12:24:02;99467.53;;;23.55;42.66
55540;BME280;41384;51.418;7.286;2022-09-03T12:26:27;99476.84;;;23.49;42.86
55540;BME280;41384;51.418;7.286;2022-09-03T12:28:57;99470.84;;;23.52;42.98
55540;BME280;41384;51.418;7.286;2022-09-03T12:31:28;99476.34;;;23.47;43.22
55540;BME280;41384;51.418;7.286;2022-09-03T12:34:12;99465.53;;;23.61;42.92
55540;BME280;41384;51.418;7.286;2022-09-03T12:36:41;99468.31;;;23.56;43.20
55540;BME280;41384;51.418;7.286;2022-09-03T12:39:18;99470.94;;;23.47;43.29
55540;BME280;41384;51.418;7.286;2022-09-03T12:44:27;99456.88;;;23.50;43.88
55540;BME280;41384;51.418;7.286;2022-09-03T12:49:33;99457.97;;;23.49;44.26
55540;BME280;41384;51.418;7.286;2022-09-03T12:52:02;99466.16;;;23.44;44.60
55540;BME280;41384;51.418;7.286;2022-09-03T12:54:30;99457.28;;;23.43;44.85
55540;BME280;41384;51.418;7.286;2022-09-03T12:56:57;99460.78;;;23.44;45.11
55540;BME280;41384;51.418;7.286;2022-09-03T12:59:26;99454.19;;;23.36;44.90
55540;BME280;41384;51.418;7.286;2022-09-03T13:02:00;99452.50;;;23.40;45.21
55540;BME280;41384;51.418;7.286;2022-09-03T13:04:31;99457.59;;;23.42;44.71
55540;BME280;41384;51.418;7.286;2022-09-03T13:07:04;99457.38;;;23.38;45.00
55540;BME280;41384;51.418;7.286;2022-09-03T13:09:31;99451.91;;;23.29;45.55
55540;BME280;41384;51.418;7.286;2022-09-03T13:11:57;99461.88;;;23.29;45.68
55540;BME280;41384;51.418;7.286;2022-09-03T13:14:41;99456.06;;;23.22;46.09
55540;BME280;41384;51.418;7.286;2022-09-03T13:17:19;99453.38;;;23.36;45.67
55540;BME280;41384;51.418;7.286;2022-09-03T13:20:05;99453.50;;;23.30;46.67
55540;BME280;41384;51.418;7.286;2022-09-03T13:28:10;99443.59;;;23.54;45.93
55540;BME280;41384;51.418;7.286;2022-09-03T13:31:07;99439.31;;;23.53;45.48
55540;BME280;41384;51.418;7.286;2022-09-03T13:33:43;99440.75;;;23.73;45.64
55540;BME280;41384;51.418;7.286;2022-09-03T13:36:15;99436.66;;;24.12;44.61
55540;BME280;41384;51.418;7.286;2022-09-03T13:39:17;99436.13;;;23.87;45.18
55540;BME280;41384;51.418;7.286;2022-09-03T13:41:49;99442.38;;;24.11;44.81
55540;BME280;41384;51.418;7.286;2022-09-03T13:44:33;99433.31;;;24.07;44.50
55540;BME280;41384;51.418;7.286;2022-09-03T13:47:09;99433.22;;;24.21;44.12
55540;BME280;41384;51.418;7.286;2022-09-03T13:52:50;99437.03;;;24.42;43.86
55540;BME280;41384;51.418;7.286;2022-09-03T13:55:32;99420.22;;;24.45;43.86
55540;BME280;41384;51.418;7.286;2022-09-03T14:01:01;99427.31;;;23.96;44.59
55540;BME280;41384;51.418;7.286;2022-09-03T14:06:45;99434.44;;;24.14;44.58
55540;BME280;41384;51.418;7.286;2022-09-03T14:12:13;99437.47;;;24.13;44.45
55540;BME280;41384;51.418;7.286;2022-09-03T14:15:07;99435.50;;;23.90;44.59
55540;BME280;41384;51.418;7.286;2022-09-03T14:17:54;99438.81;;;23.87;45.02
55540;BME280;41384;51.418;7.286;2022-09-03T14:20:35;99429.63;;;24.02;44.72
55540;BME280;41384;51.418;7.286;2022-09-03T14:25:56;99436.16;;;24.10;44.55
55540;BME280;41384;51.418;7.286;2022-09-03T14:28:30;99440.28;;;23.94;44.30
55540;BME280;41384;51.418;7.286;2022-09-03T14:33:54;99442.09;;;23.98;44.83
55540;BME280;41384;51.418;7.286;2022-09-03T14:36:45;99446.28;;;23.90;45.14
55540;BME280;41384;51.418;7.286;2022-09-03T14:39:32;99446.31;;;23.76;44.87
55540;BME280;41384;51.418;7.286;2022-09-03T14:42:10;99442.84;;;23.76;44.98
55540;BME280;41384;51.418;7.286;2022-09-03T14:44:59;99439.34;;;23.75;44.72
55540;BME280;41384;51.418;7.286;2022-09-03T14:56:01;99437.63;;;23.80;44.93
55540;BME280;41384;51.418;7.286;2022-09-03T14:58:34;99435.75;;;23.80;44.85
55540;BME280;41384;51.418;7.286;2022-09-03T15:01:10;99443.63;;;23.76;44.81
55540;BME280;41384;51.418;7.286;2022-09-03T15:04:19;99435.16;;;23.69;44.93
55540;BME280;41384;51.418;7.286;2022-09-03T15:09:51;99439.41;;;23.61;44.73
55540;BME280;41384;51.418;7.286;2022-09-03T15:12:24;99443.81;;;23.57;45.33
55540;BME280;41384;51.418;7.286;2022-09-03T15:14:55;99444.19;;;23.65;45.27
55540;BME280;41384;51.418;7.286;2022-09-03T15:17:46;99446.59;;;23.52;45.25
55540;BME280;41384;51.418;7.286;2022-09-03T15:20:20;99445.88;;;23.60;45.49
55540;BME280;41384;51.418;7.286;2022-09-03T15:23:29;99440.00;;;23.58;45.40
55540;BME280;41384;51.418;7.286;2022-09-03T15:26:32;99450.56;;;23.55;46.07
55540;BME280;41384;51.418;7.286;2022-09-03T15:31:58;99442.91;;;23.48;46.12
55540;BME280;41384;51.418;7.286;2022-09-03T15:37:31;99437.19;;;23.64;45.68
55540;BME280;41384;51.418;7.286;2022-09-03T15:40:35;99441.81;;;23.49;46.44
55540;BME280;41384;51.418;7.286;2022-09-03T15:43:05;99442.44;;;23.46;45.98
55540;BME280;41384;51.418;7.286;2022-09-03T15:45:39;99442.09;;;23.48;46.10
55540;BME280;41384;51.418;7.286;2022-09-03T15:48:29;99444.63;;;23.44;46.77
55540;BME280;41384;51.418;7.286;2022-09-03T15:56:25;99450.81;;;23.81;45.93
55540;BME280;41384;51.418;7.286;2022-09-03T15:59:15;99447.69;;;23.51;46.71
55540;BME280;41384;51.418;7.286;2022-09-03T16:01:49;99450.78;;;23.58;46.61
55540;BME280;41384;51.418;7.286;2022-09-03T16:04:28;99446.50;;;23.57;46.98
55540;BME280;41384;51.418;7.286;2022-09-03T16:07:00;99443.00;;;23.57;46.75